createdAt,value
2022-09-22T00:01:32.183Z,6.40
2022-09-22T00:04:04.940Z,6.34
2022-09-22T00:06:36.453Z,6.31
2022-09-22T00:09:05.703Z,6.25
2022-09-22T00:11:36.225Z,6.22
2022-09-22T00:14:07.992Z,6.21
2022-09-22T00:16:38.967Z,6.21
2022-09-22T00:19:09.128Z,6.24
2022-09-22T00:21:37.622Z,6.25
2022-09-22T00:24:07.868Z,6.29
2022-09-22T00:26:37.975Z,6.22
2022-09-22T00:29:07.980Z,6.24
2022-09-22T00:31:37.122Z,6.25
2022-09-22T00:34:05.039Z,6.21
2022-09-22T00:36:35.472Z,6.19
2022-09-22T00:39:03.877Z,6.14
2022-09-22T00:41:34.041Z,6.06
2022-09-22T00:44:33.429Z,5.99
2022-09-22T00:47:07.307Z,5.93
2022-09-22T00:49:42.711Z,5.87
2022-09-22T00:52:14.081Z,5.73
2022-09-22T00:54:42.244Z,5.68
2022-09-22T00:57:14.330Z,5.59
2022-09-22T00:59:45.656Z,5.54
2022-09-22T01:02:13.909Z,5.49
2022-09-22T01:04:42.618Z,5.44
2022-09-22T01:07:13.137Z,5.41
2022-09-22T01:09:41.032Z,5.41
2022-09-22T01:12:09.526Z,5.34
2022-09-22T01:14:50.258Z,5.29
2022-09-22T01:17:26.041Z,5.21
2022-09-22T01:20:16.608Z,5.15
2022-09-22T01:23:18.456Z,5.10
2022-09-22T01:26:02.949Z,5.06
2022-09-22T01:29:04.356Z,5.02
2022-09-22T01:31:39.186Z,4.99
2022-09-22T01:34:12.918Z,4.96
2022-09-22T01:36:48.316Z,4.96
2022-09-22T01:39:23.713Z,4.94
2022-09-22T01:41:58.215Z,4.91
2022-09-22T01:44:32.533Z,4.87
2022-09-22T01:47:07.821Z,4.86
2022-09-22T01:49:41.372Z,4.83
2022-09-22T01:52:16.502Z,4.81
2022-09-22T01:54:47.252Z,4.82
2022-09-22T01:57:19.487Z,4.84
2022-09-22T01:59:54.356Z,4.83
2022-09-22T02:02:28.776Z,4.81
2022-09-22T02:05:02.082Z,4.80
2022-09-22T02:07:34.352Z,4.79
2022-09-22T02:10:08.138Z,4.81
2022-09-22T02:12:36.744Z,4.84
2022-09-22T02:15:05.521Z,4.82
2022-09-22T02:17:35.812Z,4.81
2022-09-22T02:20:06.689Z,4.83
2022-09-22T02:22:34.888Z,4.82
2022-09-22T02:25:02.786Z,4.80
2022-09-22T02:27:36.650Z,4.80
2022-09-22T02:30:08.379Z,4.77
2022-09-22T02:32:40.650Z,4.84
2022-09-22T02:35:09.947Z,4.90
2022-09-22T02:37:41.592Z,4.81
2022-09-22T02:40:21.101Z,4.78
2022-09-22T02:42:54.778Z,4.84
2022-09-22T02:45:28.176Z,4.88
2022-09-22T02:48:00.357Z,4.82
2022-09-22T02:50:31.214Z,4.75
2022-09-22T02:53:03.740Z,4.69
2022-09-22T02:55:31.864Z,4.66
2022-09-22T02:57:59.694Z,4.58
2022-09-22T03:00:27.698Z,4.54
2022-09-22T03:02:56.993Z,4.48
2022-09-22T03:05:24.966Z,4.43
2022-09-22T03:07:52.968Z,4.36
2022-09-22T03:10:20.925Z,4.32
2022-09-22T03:13:14.459Z,4.30
2022-09-22T03:15:37.033Z,4.22
2022-09-22T03:18:06.683Z,4.18
2022-09-22T03:20:34.785Z,4.15
2022-09-22T03:23:02.723Z,4.10
2022-09-22T03:25:30.610Z,4.06
2022-09-22T03:27:58.525Z,4.05
2022-09-22T03:30:26.473Z,4.09
2022-09-22T03:32:54.380Z,4.13
2022-09-22T03:35:23.734Z,4.14
2022-09-22T03:37:51.637Z,4.12
2022-09-22T03:40:19.697Z,4.11
2022-09-22T03:42:47.642Z,4.18
2022-09-22T03:45:16.075Z,4.15
2022-09-22T03:47:44.015Z,4.13
2022-09-22T03:50:11.945Z,4.09
2022-09-22T03:52:42.916Z,4.14
2022-09-22T03:55:11.706Z,4.13
2022-09-22T03:57:40.411Z,4.07
2022-09-22T04:00:09.743Z,4.05
2022-09-22T04:02:40.659Z,4.04
2022-09-22T04:05:09.836Z,4.00
2022-09-22T04:07:37.833Z,4.01
2022-09-22T04:10:08.960Z,4.02
2022-09-22T04:12:37.259Z,3.99
2022-09-22T04:15:06.225Z,4.15
2022-09-22T04:17:34.114Z,4.13
2022-09-22T04:20:02.630Z,4.08
2022-09-22T04:22:30.666Z,4.01
2022-09-22T04:24:58.542Z,3.97
2022-09-22T04:27:27.848Z,3.93
2022-09-22T04:29:56.028Z,3.89
2022-09-22T04:32:24.418Z,3.87
2022-09-22T04:34:52.304Z,3.84
2022-09-22T04:37:20.177Z,3.81
2022-09-22T04:39:48.102Z,3.77
2022-09-22T04:42:16.065Z,3.73
2022-09-22T04:44:46.072Z,3.69
2022-09-22T04:47:14.202Z,3.68
2022-09-22T04:49:42.085Z,3.61
2022-09-22T04:52:10.550Z,3.61
2022-09-22T04:54:38.412Z,3.57
2022-09-22T04:57:06.573Z,3.55
2022-09-22T04:59:35.258Z,3.54
2022-09-22T05:02:04.734Z,3.55
2022-09-22T05:04:32.816Z,3.51
2022-09-22T05:07:00.767Z,3.52
2022-09-22T05:09:29.104Z,3.57
2022-09-22T05:11:58.726Z,3.61
2022-09-22T05:14:26.739Z,3.61
2022-09-22T05:16:54.691Z,3.64
2022-09-22T05:19:24.130Z,3.64
2022-09-22T05:21:52.111Z,3.61
2022-09-22T05:24:20.027Z,3.64
2022-09-22T05:26:48.098Z,3.65
2022-09-22T05:29:18.178Z,3.70
2022-09-22T05:31:46.386Z,3.69
2022-09-22T05:34:14.372Z,3.72
2022-09-22T05:36:43.828Z,3.74
2022-09-22T05:39:11.785Z,3.76
2022-09-22T05:41:39.862Z,3.81
2022-09-22T05:44:07.870Z,3.88
2022-09-22T05:46:35.791Z,3.94
2022-09-22T05:49:03.939Z,4.03
2022-09-22T05:51:31.839Z,4.17
2022-09-22T05:54:01.230Z,4.26
2022-09-22T05:56:29.199Z,4.35
2022-09-22T05:58:57.140Z,4.39
2022-09-22T06:01:25.391Z,4.47
2022-09-22T06:03:53.633Z,4.57
2022-09-22T06:06:21.597Z,4.69
2022-09-22T06:08:50.859Z,4.88
2022-09-22T06:11:20.374Z,5.14
2022-09-22T06:13:51.535Z,5.27
2022-09-22T06:16:19.726Z,5.42
2022-09-22T06:18:48.092Z,5.63
2022-09-22T06:21:16.630Z,5.79
2022-09-22T06:23:44.776Z,6.04
2022-09-22T06:26:12.746Z,6.20
2022-09-22T06:28:42.065Z,6.39
2022-09-22T06:31:10.027Z,6.65
2022-09-22T06:33:37.960Z,6.92
2022-09-22T06:36:08.005Z,7.11
2022-09-22T06:38:35.932Z,7.37
2022-09-22T06:41:04.212Z,7.53
2022-09-22T06:43:37.728Z,7.76
2022-09-22T06:46:11.205Z,7.94
2022-09-22T06:48:39.176Z,8.16
2022-09-22T06:51:07.225Z,8.35
2022-09-22T06:53:35.219Z,8.59
2022-09-22T06:56:06.005Z,8.77
2022-09-22T06:58:52.356Z,9.08
2022-09-22T07:01:24.365Z,9.22
2022-09-22T07:03:52.749Z,9.38
2022-09-22T07:06:21.079Z,9.40
2022-09-22T07:08:50.183Z,9.69
2022-09-22T07:11:23.552Z,9.55
2022-09-22T07:13:53.342Z,9.89
2022-09-22T07:16:22.884Z,9.71
2022-09-22T07:18:54.288Z,10.00
2022-09-22T07:21:24.630Z,10.09
2022-09-22T07:23:55.738Z,9.99
2022-09-22T07:26:26.434Z,10.06
2022-09-22T07:28:54.986Z,10.22
2022-09-22T07:31:28.446Z,10.53
2022-09-22T07:34:00.201Z,10.39
2022-09-22T07:36:30.492Z,10.32
2022-09-22T07:39:04.109Z,10.58
2022-09-22T07:41:41.271Z,10.75
2022-09-22T07:44:27.897Z,10.78
2022-09-22T07:46:56.003Z,10.82
2022-09-22T07:49:25.365Z,10.76
2022-09-22T07:51:54.920Z,11.24
2022-09-22T07:54:23.856Z,11.31
2022-09-22T07:56:55.245Z,11.26
2022-09-22T07:59:23.249Z,11.22
2022-09-22T08:01:53.618Z,11.08
2022-09-22T08:04:23.958Z,11.08
2022-09-22T08:06:55.279Z,11.08
2022-09-22T08:09:23.743Z,10.95
2022-09-22T08:11:53.002Z,11.08
2022-09-22T08:14:22.164Z,10.95
2022-09-22T08:16:51.272Z,11.10
2022-09-22T08:19:19.240Z,11.44
2022-09-22T08:21:49.697Z,11.59
2022-09-22T08:24:22.325Z,11.64
2022-09-22T08:26:52.253Z,11.75
2022-09-22T08:29:20.750Z,11.88
2022-09-22T08:31:51.309Z,12.07
2022-09-22T08:34:20.100Z,12.25
2022-09-22T08:36:48.630Z,12.24
2022-09-22T08:39:19.126Z,12.13
2022-09-22T08:41:59.361Z,12.20
2022-09-22T08:44:29.618Z,12.10
2022-09-22T08:47:01.677Z,12.20
2022-09-22T08:49:53.550Z,12.43
2022-09-22T08:52:32.520Z,12.26
2022-09-22T08:55:03.202Z,12.30
2022-09-22T08:57:56.172Z,12.45
2022-09-22T09:00:25.714Z,12.66
2022-09-22T09:03:10.616Z,12.73
2022-09-22T09:06:04.325Z,12.67
2022-09-22T09:09:05.705Z,12.93
2022-09-22T09:12:01.214Z,12.95
2022-09-22T09:14:52.033Z,13.12
2022-09-22T09:17:24.668Z,13.36
2022-09-22T09:19:58.102Z,13.50
2022-09-22T09:22:32.017Z,13.51
2022-09-22T09:27:57.092Z,13.89
2022-09-22T09:30:25.377Z,13.87
2022-09-22T09:32:59.091Z,14.00
2022-09-22T09:35:41.423Z,14.09
2022-09-22T09:38:14.556Z,14.15
2022-09-22T09:40:42.957Z,14.39
2022-09-22T09:43:12.251Z,14.51
2022-09-22T09:45:51.293Z,14.53
2022-09-22T09:48:30.634Z,14.71
2022-09-22T09:51:03.547Z,14.74
2022-09-22T09:53:40.469Z,14.76
2022-09-22T09:56:22.410Z,15.09
2022-09-22T09:59:16.783Z,15.30
2022-09-22T10:01:47.139Z,15.44
2022-09-22T10:04:20.425Z,15.52
2022-09-22T10:06:49.392Z,15.73
2022-09-22T10:09:28.635Z,15.96
2022-09-22T10:12:00.873Z,16.12
2022-09-22T10:14:33.603Z,16.07
2022-09-22T10:17:03.840Z,16.34
2022-09-22T10:19:34.444Z,16.22
2022-09-22T10:22:24.786Z,16.37
2022-09-22T10:24:58.178Z,16.54
2022-09-22T10:27:28.307Z,16.82
2022-09-22T10:30:22.765Z,17.39
2022-09-22T10:33:14.856Z,17.62
2022-09-22T10:35:44.930Z,18.28
2022-09-22T10:38:19.752Z,19.03
2022-09-22T10:40:51.334Z,19.46
2022-09-22T10:43:36.973Z,18.85
2022-09-22T10:46:33.820Z,19.38
2022-09-22T10:49:10.795Z,19.64
2022-09-22T10:51:54.953Z,20.54
2022-09-22T10:55:01.954Z,21.10
2022-09-22T10:57:51.546Z,21.37
2022-09-22T11:00:21.708Z,21.25
2022-09-22T11:03:29.833Z,20.63
2022-09-22T11:06:30.303Z,21.26
2022-09-22T11:09:24.417Z,21.05
2022-09-22T11:12:20.146Z,21.38
2022-09-22T11:15:25.729Z,21.12
2022-09-22T11:18:14.398Z,21.77
2022-09-22T11:20:46.076Z,21.75
2022-09-22T11:23:36.855Z,21.60
2022-09-22T11:26:19.987Z,21.94
2022-09-22T11:28:58.934Z,21.22
2022-09-22T11:31:42.326Z,20.69
2022-09-22T11:34:33.487Z,20.25
2022-09-22T11:37:26.434Z,19.76
2022-09-22T11:40:17.747Z,19.66
2022-09-22T11:42:59.418Z,20.64
2022-09-22T11:45:44.771Z,21.18
2022-09-22T11:48:30.480Z,20.96
2022-09-22T11:51:21.926Z,20.97
2022-09-22T11:54:05.226Z,21.42
2022-09-22T11:56:39.461Z,21.59
2022-09-22T11:59:27.018Z,21.24
2022-09-22T12:01:57.963Z,21.59
2022-09-22T12:04:34.271Z,21.01
2022-09-22T12:07:03.941Z,21.46
2022-09-22T12:09:38.833Z,21.67
2022-09-22T12:12:12.709Z,21.41
2022-09-22T12:14:41.273Z,21.61
2022-09-22T12:17:21.457Z,21.40
2022-09-22T12:20:00.711Z,21.46
2022-09-22T12:22:33.767Z,20.77
2022-09-22T12:25:03.323Z,21.07
2022-09-22T12:27:32.626Z,20.28
2022-09-22T12:30:03.008Z,20.85
2022-09-22T12:32:37.092Z,21.41
2022-09-22T12:35:06.598Z,21.32
2022-09-22T12:37:37.080Z,21.16
2022-09-22T12:40:24.278Z,21.47
2022-09-22T12:42:54.441Z,22.03
2022-09-22T12:45:30.560Z,21.93
2022-09-22T12:48:00.869Z,22.92
2022-09-22T12:50:35.917Z,23.16
2022-09-22T12:53:11.127Z,23.69
2022-09-22T12:55:40.691Z,23.68
2022-09-22T12:58:44.467Z,23.35
2022-09-22T13:01:35.016Z,22.12
2022-09-22T13:04:12.949Z,21.34
2022-09-22T13:06:56.071Z,21.85
2022-09-22T13:09:26.974Z,22.70
2022-09-22T13:12:30.874Z,22.86
2022-09-22T13:15:24.383Z,23.09
2022-09-22T13:17:52.543Z,22.81
2022-09-22T13:20:24.347Z,22.98
2022-09-22T13:22:55.205Z,23.55
2022-09-22T13:25:26.406Z,23.89
2022-09-22T13:28:14.378Z,24.02
2022-09-22T13:30:43.978Z,23.98
2022-09-22T13:33:23.918Z,23.94
2022-09-22T13:35:57.017Z,23.63
2022-09-22T13:38:25.121Z,23.80
2022-09-22T13:40:53.626Z,24.55
2022-09-22T13:43:29.243Z,25.33
2022-09-22T13:45:59.712Z,25.23
2022-09-22T13:48:31.203Z,25.33
2022-09-22T13:51:03.447Z,24.75
2022-09-22T13:53:32.161Z,23.59
2022-09-22T13:56:00.694Z,23.40
2022-09-22T13:58:37.134Z,23.12
2022-09-22T14:01:15.183Z,23.52
2022-09-22T14:03:44.362Z,23.00
2022-09-22T14:06:15.037Z,21.97
2022-09-22T14:08:44.815Z,21.24
2022-09-22T14:11:16.145Z,20.89
2022-09-22T14:13:58.286Z,19.98
2022-09-22T14:16:31.880Z,19.85
2022-09-22T14:19:04.679Z,19.93
2022-09-22T14:21:33.532Z,19.98
2022-09-22T14:24:02.312Z,20.09
2022-09-22T14:26:36.017Z,20.45
2022-09-22T14:29:16.972Z,20.96
2022-09-22T14:31:48.089Z,21.89
2022-09-22T14:34:24.637Z,22.33
2022-09-22T14:36:54.992Z,21.41
2022-09-22T14:39:31.815Z,21.36
2022-09-22T14:42:08.879Z,21.75
2022-09-22T14:44:49.517Z,21.66
2022-09-22T14:47:25.823Z,22.08
2022-09-22T14:50:12.483Z,21.42
2022-09-22T14:52:43.356Z,21.34
2022-09-22T14:55:17.878Z,20.93
2022-09-22T14:57:49.731Z,21.65
2022-09-22T15:00:37.544Z,21.35
2022-09-22T15:03:16.399Z,21.63
2022-09-22T15:05:45.895Z,21.69
2022-09-22T15:08:15.589Z,21.50
2022-09-22T15:10:53.054Z,20.85
2022-09-22T15:13:29.540Z,20.38
2022-09-22T15:15:59.406Z,20.12
2022-09-22T15:18:30.747Z,19.51
2022-09-22T15:21:03.489Z,19.24
2022-09-22T15:23:35.583Z,19.20
2022-09-22T15:26:04.955Z,19.15
2022-09-22T15:28:38.028Z,19.08
2022-09-22T15:31:07.816Z,18.90
2022-09-22T15:33:36.021Z,18.90
2022-09-22T15:36:10.962Z,18.68
2022-09-22T15:38:39.742Z,18.31
2022-09-22T15:41:12.068Z,18.58
2022-09-22T15:43:41.251Z,18.27
2022-09-22T15:46:28.477Z,18.27
2022-09-22T15:49:01.066Z,18.46
2022-09-22T15:51:30.390Z,18.66
2022-09-22T15:53:58.410Z,18.68
2022-09-22T15:56:29.506Z,18.56
2022-09-22T15:59:00.819Z,18.51
2022-09-22T16:01:30.433Z,18.32
2022-09-22T16:04:00.106Z,18.11
2022-09-22T16:06:28.655Z,17.74
2022-09-22T16:08:58.335Z,17.61
2022-09-22T16:11:29.566Z,17.49
2022-09-22T16:14:00.937Z,17.27
2022-09-22T16:16:31.422Z,17.21
2022-09-22T16:18:59.889Z,17.22
2022-09-22T16:21:30.218Z,17.21
2022-09-22T16:24:03.913Z,16.91
2022-09-22T16:26:33.349Z,16.75
2022-09-22T16:29:01.775Z,16.87
2022-09-22T16:31:31.554Z,16.81
2022-09-22T16:34:01.693Z,16.71
2022-09-22T16:36:31.067Z,16.57
2022-09-22T16:38:59.446Z,16.47
2022-09-22T16:41:29.271Z,16.50
2022-09-22T16:43:58.155Z,16.24
2022-09-22T16:46:27.891Z,16.14
2022-09-22T16:49:00.194Z,16.09
2022-09-22T16:51:28.907Z,15.93
2022-09-22T16:53:57.519Z,15.90
2022-09-22T16:56:27.690Z,15.80
2022-09-22T16:58:56.356Z,15.80
2022-09-22T17:01:25.033Z,15.64
2022-09-22T17:03:53.740Z,15.51
2022-09-22T17:06:25.247Z,15.49
2022-09-22T17:08:54.929Z,15.31
2022-09-22T17:11:24.538Z,15.13
2022-09-22T17:13:52.744Z,14.88
2022-09-22T17:16:24.444Z,14.65
2022-09-22T17:18:53.475Z,14.44
2022-09-22T17:21:23.768Z,14.30
2022-09-22T17:23:54.794Z,14.19
2022-09-22T17:26:22.742Z,14.17
2022-09-22T17:28:52.610Z,14.13
2022-09-22T17:31:23.455Z,13.93
2022-09-22T17:33:52.549Z,13.85
2022-09-22T17:36:25.453Z,13.70
2022-09-22T17:38:55.686Z,13.61
2022-09-22T17:41:25.540Z,13.49
2022-09-22T17:43:56.675Z,13.44
2022-09-22T17:46:26.549Z,13.43
2022-09-22T17:49:12.548Z,13.29
2022-09-22T17:52:00.814Z,13.10
2022-09-22T17:54:48.298Z,13.05
2022-09-22T17:57:17.816Z,12.96
2022-09-22T17:59:47.139Z,12.85
2022-09-22T18:02:17.410Z,12.79
2022-09-22T18:04:46.256Z,12.62
2022-09-22T18:07:17.765Z,12.60
2022-09-22T18:09:48.804Z,12.45
2022-09-22T18:12:21.078Z,12.27
2022-09-22T18:14:51.984Z,12.23
2022-09-22T18:17:21.922Z,12.18
2022-09-22T18:19:50.124Z,12.12
2022-09-22T18:22:21.200Z,12.13
2022-09-22T18:24:50.451Z,12.02
2022-09-22T18:27:19.519Z,11.86
2022-09-22T18:29:49.908Z,11.80
2022-09-22T18:32:20.055Z,11.72
2022-09-22T18:34:51.101Z,11.63
2022-09-22T18:37:20.906Z,11.58
2022-09-22T18:39:50.363Z,11.47
2022-09-22T18:42:19.389Z,11.40
2022-09-22T18:44:47.869Z,11.22
2022-09-22T18:47:18.739Z,11.04
2022-09-22T18:49:48.141Z,10.90
2022-09-22T18:52:18.008Z,10.77
2022-09-22T18:54:47.426Z,10.72
2022-09-22T18:57:15.557Z,10.67
2022-09-22T18:59:43.577Z,10.66
2022-09-22T19:02:12.282Z,10.61
2022-09-22T19:04:40.613Z,10.55
2022-09-22T19:07:26.993Z,10.51
2022-09-22T19:09:56.474Z,10.49
2022-09-22T19:12:24.437Z,10.42
2022-09-22T19:14:54.410Z,10.33
2022-09-22T19:17:24.353Z,10.24
2022-09-22T19:19:52.578Z,10.20
2022-09-22T19:22:23.174Z,10.09
2022-09-22T19:24:52.400Z,9.97
2022-09-22T19:27:22.590Z,9.91
2022-09-22T19:29:51.724Z,9.84
2022-09-22T19:32:19.650Z,9.76
2022-09-22T19:34:47.561Z,9.71
2022-09-22T19:37:15.538Z,9.71
2022-09-22T19:39:43.943Z,9.81
2022-09-22T19:42:11.928Z,9.73
2022-09-22T19:44:41.485Z,9.89
2022-09-22T19:47:09.421Z,9.87
2022-09-22T19:49:37.434Z,9.80
2022-09-22T19:52:05.425Z,9.71
2022-09-22T19:54:33.469Z,9.67
2022-09-22T19:57:01.531Z,9.62
2022-09-22T19:59:29.606Z,9.60
2022-09-22T20:01:59.006Z,9.54
2022-09-22T20:04:27.039Z,9.50
2022-09-22T20:06:55.024Z,9.41
2022-09-22T20:09:22.979Z,9.31
2022-09-22T20:11:52.237Z,9.23
2022-09-22T20:14:23.666Z,9.21
2022-09-22T20:16:53.236Z,9.18
2022-09-22T20:19:24.432Z,9.18
2022-09-22T20:21:54.895Z,9.23
2022-09-22T20:24:24.168Z,9.19
2022-09-22T20:26:53.796Z,9.17
2022-09-22T20:29:21.785Z,9.22
2022-09-22T20:31:49.793Z,9.16
2022-09-22T20:34:17.948Z,9.10
2022-09-22T20:36:47.461Z,9.18
2022-09-22T20:39:15.887Z,9.14
2022-09-22T20:41:44.399Z,9.15
2022-09-22T20:44:14.697Z,9.15
2022-09-22T20:46:43.453Z,9.10
2022-09-22T20:49:13.845Z,9.08
2022-09-22T20:51:42.229Z,9.10
2022-09-22T20:54:11.557Z,9.13
2022-09-22T20:56:42.643Z,9.14
2022-09-22T20:59:11.161Z,9.07
2022-09-22T21:01:39.230Z,9.11
2022-09-22T21:04:07.450Z,9.10
2022-09-22T21:06:35.679Z,9.17
2022-09-22T21:09:21.385Z,9.14
2022-09-22T21:11:50.732Z,9.15
2022-09-22T21:14:18.595Z,9.20
2022-09-22T21:16:50.198Z,9.24
2022-09-22T21:19:18.422Z,9.44
2022-09-22T21:21:46.443Z,9.36
2022-09-22T21:24:14.700Z,9.29
2022-09-22T21:26:42.637Z,9.23
2022-09-22T21:29:11.938Z,9.16
2022-09-22T21:31:39.856Z,9.13
2022-09-22T21:34:07.968Z,9.13
2022-09-22T21:36:35.959Z,9.18
2022-09-22T21:39:04.084Z,9.28
2022-09-22T21:41:33.058Z,9.33
2022-09-22T21:44:01.238Z,9.38
2022-09-22T21:46:31.249Z,9.51
2022-09-22T21:49:01.526Z,9.66
2022-09-22T21:51:34.198Z,9.65
2022-09-22T21:54:04.321Z,9.58
2022-09-22T21:56:33.640Z,9.46
2022-09-22T21:59:03.088Z,9.48
2022-09-22T22:01:34.824Z,9.67
2022-09-22T22:04:07.784Z,9.69
2022-09-22T22:06:40.779Z,9.70
2022-09-22T22:09:13.896Z,9.75
2022-09-22T22:11:43.703Z,9.63
2022-09-22T22:14:12.917Z,9.51
2022-09-22T22:16:44.192Z,9.44
2022-09-22T22:19:13.637Z,9.24
2022-09-22T22:21:42.830Z,9.10
2022-09-22T22:24:28.386Z,8.93
2022-09-22T22:26:58.670Z,8.78
2022-09-22T22:29:28.114Z,8.67
2022-09-22T22:31:57.521Z,8.59
2022-09-22T22:34:26.470Z,8.51
2022-09-22T22:36:54.995Z,8.46
2022-09-22T22:39:23.164Z,8.40
2022-09-22T22:41:53.754Z,8.47
2022-09-22T22:44:21.673Z,8.39
2022-09-22T22:46:49.617Z,8.34
2022-09-22T22:49:19.179Z,8.29
2022-09-22T22:51:49.085Z,8.27
2022-09-22T22:54:17.077Z,8.17
2022-09-22T22:56:48.908Z,8.08
2022-09-22T22:59:19.360Z,8.00
2022-09-22T23:01:47.411Z,7.89
2022-09-22T23:04:16.484Z,7.83
2022-09-22T23:06:48.386Z,7.77
2022-09-22T23:09:17.671Z,7.70
2022-09-22T23:11:46.329Z,7.66
2022-09-22T23:14:15.882Z,7.59
2022-09-22T23:16:44.889Z,7.56
2022-09-22T23:19:14.435Z,7.51
2022-09-22T23:21:42.687Z,7.46
2022-09-22T23:24:15.980Z,7.39
2022-09-22T23:26:45.284Z,7.34
2022-09-22T23:29:13.535Z,7.29
2022-09-22T23:31:41.670Z,7.29
2022-09-22T23:34:09.554Z,7.26
2022-09-22T23:36:37.485Z,7.21
2022-09-22T23:39:05.729Z,7.24
2022-09-22T23:41:37.368Z,7.21
2022-09-22T23:44:06.425Z,7.14
2022-09-22T23:46:34.847Z,7.10
2022-09-22T23:49:02.883Z,7.05
2022-09-22T23:51:31.259Z,7.04
2022-09-22T23:53:59.892Z,7.02
2022-09-22T23:56:27.910Z,7.00
2022-09-22T23:58:57.546Z,7.01
